createdAt,value
2018-02-24T00:00:15.725Z,26.73
2018-02-24T00:02:43.198Z,23.17
2018-02-24T00:05:10.675Z,26.83
2018-02-24T00:07:38.162Z,25.33
2018-02-24T00:10:05.622Z,24.60
2018-02-24T00:12:33.085Z,25.33
2018-02-24T00:15:01.325Z,25.87
2018-02-24T00:17:28.789Z,27.07
2018-02-24T00:19:56.254Z,26.80
2018-02-24T00:22:23.718Z,25.27
2018-02-24T00:24:51.189Z,26.27
2018-02-24T00:27:18.657Z,26.90
2018-02-24T00:29:46.129Z,26.37
2018-02-24T00:32:14.363Z,23.60
2018-02-24T00:34:41.846Z,25.43
2018-02-24T00:37:10.086Z,25.43
2018-02-24T00:39:37.577Z,26.20
2018-02-24T00:42:05.052Z,25.80
2018-02-24T00:44:32.534Z,26.50
2018-02-24T00:47:00.008Z,26.70
2018-02-24T00:49:27.478Z,26.43
2018-02-24T00:51:54.939Z,25.67
2018-02-24T00:54:22.411Z,26.73
2018-02-24T00:56:49.882Z,25.80
2018-02-24T00:59:17.342Z,27.17
2018-02-24T01:01:45.569Z,26.60
2018-02-24T01:04:13.047Z,26.23
2018-02-24T01:06:40.514Z,27.13
2018-02-24T01:09:07.986Z,26.87
2018-02-24T01:11:36.215Z,26.43
2018-02-24T01:14:03.684Z,27.00
2018-02-24T01:16:31.763Z,26.03
2018-02-24T01:18:59.226Z,26.87
2018-02-24T01:21:26.686Z,26.27
2018-02-24T01:23:54.158Z,24.93
2018-02-24T01:26:21.630Z,26.07
2018-02-24T01:28:49.099Z,28.37
2018-02-24T01:31:16.570Z,27.03
2018-02-24T01:33:44.050Z,29.03
2018-02-24T01:36:11.538Z,27.70
2018-02-24T01:38:39.004Z,29.30
2018-02-24T01:41:07.254Z,27.90
2018-02-24T01:43:34.761Z,27.87
2018-02-24T01:46:02.996Z,28.10
2018-02-24T01:48:30.460Z,28.10
2018-02-24T01:50:57.943Z,26.73
2018-02-24T01:53:26.223Z,27.10
2018-02-24T01:55:54.471Z,26.70
2018-02-24T01:58:22.717Z,27.00
2018-02-24T02:00:50.185Z,29.00
2018-02-24T02:03:17.926Z,26.73
2018-02-24T02:05:45.394Z,27.67
2018-02-24T02:08:12.870Z,28.03
2018-02-24T02:10:40.344Z,28.33
2018-02-24T02:13:07.818Z,25.80
2018-02-24T02:15:36.044Z,28.10
2018-02-24T02:18:03.505Z,28.27
2018-02-24T02:20:30.978Z,29.60
2018-02-24T02:22:58.439Z,27.70
2018-02-24T02:25:25.915Z,28.83
2018-02-24T02:27:54.147Z,26.40
2018-02-24T02:30:21.626Z,29.60
2018-02-24T02:32:49.098Z,29.27
2018-02-24T02:35:16.571Z,30.10
2018-02-24T02:37:44.047Z,27.37
2018-02-24T02:40:11.512Z,27.40
2018-02-24T02:42:38.982Z,28.27
2018-02-24T02:45:06.447Z,28.97
2018-02-24T02:47:33.923Z,27.27
2018-02-24T02:50:01.396Z,25.53
2018-02-24T02:52:28.858Z,26.47
2018-02-24T02:54:57.098Z,26.67
2018-02-24T02:57:25.328Z,27.00
2018-02-24T02:59:52.804Z,27.07
2018-02-24T03:02:20.266Z,25.10
2018-02-24T03:04:47.763Z,25.87
2018-02-24T03:07:15.230Z,24.77
2018-02-24T03:09:43.475Z,27.70
2018-02-24T03:12:10.966Z,27.40
2018-02-24T03:14:38.418Z,26.57
2018-02-24T03:17:05.891Z,27.60
2018-02-24T03:19:34.130Z,25.23
2018-02-24T03:22:01.586Z,26.17
2018-02-24T03:24:29.050Z,25.97
2018-02-24T03:26:56.519Z,25.50
2018-02-24T03:29:23.985Z,26.07
2018-02-24T03:31:52.235Z,27.43
2018-02-24T03:34:19.707Z,27.10
2018-02-24T03:36:47.183Z,26.57
2018-02-24T03:39:14.706Z,26.23
2018-02-24T03:41:42.898Z,26.60
2018-02-24T03:44:10.367Z,24.83
2018-02-24T03:46:38.618Z,28.97
2018-02-24T03:49:06.090Z,27.93
2018-02-24T03:51:33.561Z,27.00
2018-02-24T03:54:01.023Z,28.13
2018-02-24T03:56:29.542Z,25.87
2018-02-24T03:58:57.014Z,27.20
2018-02-24T04:01:24.480Z,27.97
2018-02-24T04:03:51.955Z,26.23
2018-02-24T04:06:19.423Z,28.00
2018-02-24T04:08:46.896Z,27.93
2018-02-24T04:11:15.129Z,25.77
2018-02-24T04:13:42.602Z,29.60
2018-02-24T04:16:10.083Z,25.23
2018-02-24T04:18:38.309Z,29.40
2018-02-24T04:21:05.777Z,27.93
2018-02-24T04:23:33.515Z,26.73
2018-02-24T04:26:00.987Z,28.23
2018-02-24T04:28:28.462Z,28.70
2018-02-24T04:30:55.951Z,29.33
2018-02-24T04:33:24.185Z,27.63
2018-02-24T04:35:51.660Z,28.17
2018-02-24T04:38:19.126Z,27.63
2018-02-24T04:40:46.599Z,29.43
2018-02-24T04:43:14.839Z,30.00
2018-02-24T04:45:42.309Z,29.87
2018-02-24T04:48:09.766Z,27.40
2018-02-24T04:50:37.248Z,27.57
2018-02-24T04:53:05.489Z,29.70
2018-02-24T04:55:32.953Z,27.90
2018-02-24T04:58:00.424Z,27.03
2018-02-24T05:00:27.890Z,29.20
2018-02-24T05:02:56.121Z,29.50
2018-02-24T05:05:23.592Z,28.37
2018-02-24T05:07:51.066Z,27.60
2018-02-24T05:10:18.534Z,30.40
2018-02-24T05:12:46.791Z,28.43
2018-02-24T05:15:14.252Z,28.27
2018-02-24T05:17:41.730Z,30.50
2018-02-24T05:20:09.963Z,27.30
2018-02-24T05:22:37.430Z,29.03
2018-02-24T05:25:04.903Z,27.90
2018-02-24T05:27:32.361Z,28.17
2018-02-24T05:29:59.834Z,28.40
2018-02-24T05:32:28.063Z,30.80
2018-02-24T05:34:55.815Z,26.97
2018-02-24T05:37:23.274Z,29.13
2018-02-24T05:39:50.756Z,28.60
2018-02-24T05:42:18.224Z,27.53
2018-02-24T05:44:45.702Z,28.00
2018-02-24T05:47:13.946Z,30.43
2018-02-24T05:49:41.414Z,29.23
2018-02-24T05:52:08.885Z,29.70
2018-02-24T05:54:36.351Z,31.07
2018-02-24T05:57:04.586Z,28.43
2018-02-24T05:59:32.042Z,30.83
2018-02-24T06:02:00.282Z,29.13
2018-02-24T06:04:27.754Z,28.80
2018-02-24T06:06:55.224Z,30.30
2018-02-24T06:09:22.695Z,29.20
2018-02-24T06:11:50.154Z,27.43
2018-02-24T06:14:17.626Z,24.67
2018-02-24T06:16:45.095Z,27.73
2018-02-24T06:19:12.558Z,29.73
2018-02-24T06:21:40.030Z,27.80
2018-02-24T06:24:07.497Z,26.43
2018-02-24T06:26:34.968Z,28.83
2018-02-24T06:29:02.431Z,27.47
2018-02-24T06:31:29.902Z,28.10
2018-02-24T06:33:57.591Z,28.27
2018-02-24T06:36:25.064Z,27.80
2018-02-24T06:38:52.531Z,29.07
2018-02-24T06:41:20.769Z,28.47
2018-02-24T06:43:48.226Z,28.03
2018-02-24T06:46:15.699Z,28.43
2018-02-24T06:48:43.167Z,27.77
2018-02-24T06:51:11.402Z,26.60
2018-02-24T06:53:38.872Z,28.10
2018-02-24T06:56:06.366Z,29.37
2018-02-24T06:58:34.597Z,27.33
2018-02-24T07:01:02.062Z,26.93
2018-02-24T07:03:29.563Z,26.37
2018-02-24T07:05:57.034Z,27.20
2018-02-24T07:08:24.494Z,24.70
2018-02-24T07:10:51.998Z,24.30
2018-02-24T07:13:19.468Z,28.13
2018-02-24T07:15:46.947Z,24.87
2018-02-24T07:18:15.173Z,26.13
2018-02-24T07:20:42.644Z,24.53
2018-02-24T07:23:10.111Z,17.30
2018-02-24T07:25:37.574Z,27.23
2018-02-24T07:28:05.050Z,25.60
2018-02-24T07:30:33.270Z,26.53
2018-02-24T07:33:00.745Z,25.77
2018-02-24T07:35:28.219Z,26.47
2018-02-24T07:37:55.681Z,22.97
2018-02-24T07:40:23.925Z,24.53
2018-02-24T07:42:51.385Z,25.87
2018-02-24T07:45:18.866Z,27.23
2018-02-24T07:47:46.330Z,25.30
2018-02-24T07:50:14.576Z,25.27
2018-02-24T07:52:42.051Z,26.33
2018-02-24T07:55:09.526Z,24.53
2018-02-24T07:57:37.027Z,22.67
2018-02-24T08:00:04.520Z,21.37
2018-02-24T08:02:31.984Z,23.17
2018-02-24T08:04:59.459Z,27.43
2018-02-24T08:07:27.713Z,26.20
2018-02-24T08:09:55.958Z,24.17
2018-02-24T08:12:23.441Z,27.23
2018-02-24T08:14:50.925Z,25.53
2018-02-24T08:17:19.162Z,25.97
2018-02-24T08:19:46.628Z,25.17
2018-02-24T08:22:14.111Z,22.23
2018-02-24T08:24:42.358Z,26.30
2018-02-24T08:27:09.826Z,22.80
2018-02-24T08:29:37.308Z,25.90
2018-02-24T08:32:05.550Z,25.27
2018-02-24T08:34:33.027Z,25.70
2018-02-24T08:37:00.502Z,25.73
2018-02-24T08:39:28.731Z,23.97
2018-02-24T08:41:56.203Z,30.80
2018-02-24T08:44:23.672Z,24.60
2018-02-24T08:46:51.154Z,24.93
2018-02-24T08:49:18.622Z,23.60
2018-02-24T08:51:46.090Z,20.23
2018-02-24T08:54:13.573Z,24.57
2018-02-24T08:56:41.038Z,25.40
2018-02-24T08:59:08.510Z,25.03
2018-02-24T09:01:35.970Z,23.97
2018-02-24T09:04:03.442Z,23.10
2018-02-24T09:06:31.678Z,25.13
2018-02-24T09:08:59.138Z,22.83
2018-02-24T09:11:26.609Z,19.77
2018-02-24T09:13:54.075Z,24.33
2018-02-24T09:16:21.547Z,22.93
2018-02-24T09:18:49.776Z,21.47
2018-02-24T09:21:17.246Z,21.67
2018-02-24T09:23:44.710Z,20.60
2018-02-24T09:26:12.191Z,22.57
2018-02-24T09:28:39.677Z,22.30
2018-02-24T09:31:07.151Z,21.40
2018-02-24T09:33:34.642Z,23.73
2018-02-24T09:36:02.103Z,19.23
2018-02-24T09:38:29.595Z,19.20
2018-02-24T09:40:57.817Z,17.90
2018-02-24T09:43:26.066Z,22.63
2018-02-24T09:45:53.542Z,23.60
2018-02-24T09:48:21.001Z,19.83
2018-02-24T09:50:48.471Z,21.87
2018-02-24T09:53:16.226Z,21.87
2018-02-24T09:55:43.682Z,22.13
2018-02-24T09:58:11.145Z,19.23
2018-02-24T10:00:38.618Z,18.57
2018-02-24T10:03:06.083Z,17.50
2018-02-24T10:05:33.555Z,18.60
2018-02-24T10:08:01.046Z,19.47
2018-02-24T10:10:28.510Z,20.00
2018-02-24T10:12:55.990Z,17.90
2018-02-24T10:15:23.469Z,15.77
2018-02-24T10:17:50.948Z,18.20
2018-02-24T10:20:19.206Z,15.80
2018-02-24T10:22:47.460Z,17.10
2018-02-24T10:25:14.938Z,17.70
2018-02-24T10:27:42.398Z,18.73
2018-02-24T10:30:10.635Z,16.27
2018-02-24T10:32:38.098Z,15.60
2018-02-24T10:35:05.570Z,16.60
2018-02-24T10:37:33.042Z,15.13
2018-02-24T10:40:00.516Z,17.00
2018-02-24T10:42:27.995Z,16.67
2018-02-24T10:44:55.466Z,14.43
2018-02-24T10:47:22.934Z,15.10
2018-02-24T10:49:50.414Z,16.53
2018-02-24T10:52:17.874Z,16.70
2018-02-24T10:54:45.347Z,16.90
2018-02-24T10:57:13.589Z,17.03
2018-02-24T10:59:41.056Z,15.60
2018-02-24T11:02:08.538Z,15.43
2018-02-24T11:04:36.767Z,17.10
2018-02-24T11:07:04.241Z,15.67
2018-02-24T11:09:31.699Z,12.67
2018-02-24T11:11:59.174Z,15.67
2018-02-24T11:14:27.190Z,14.73
2018-02-24T11:16:54.671Z,15.70
2018-02-24T11:19:22.911Z,15.63
2018-02-24T11:21:50.420Z,14.23
2018-02-24T11:24:17.892Z,14.00
2018-02-24T11:26:45.359Z,15.13
2018-02-24T11:29:13.606Z,15.60
2018-02-24T11:31:41.075Z,14.00
2018-02-24T11:34:08.542Z,14.87
2018-02-24T11:36:36.016Z,14.50
2018-02-24T11:39:04.312Z,14.13
2018-02-24T11:41:31.808Z,14.17
2018-02-24T11:43:59.272Z,15.13
2018-02-24T11:46:26.771Z,15.43
2018-02-24T11:48:55.019Z,14.60
2018-02-24T11:51:22.494Z,15.90
2018-02-24T11:53:51.015Z,14.17
2018-02-24T11:56:18.493Z,15.70
2018-02-24T11:58:45.962Z,14.37
2018-02-24T12:01:13.429Z,13.30
2018-02-24T12:03:40.910Z,14.00
2018-02-24T12:06:09.141Z,15.23
2018-02-24T12:08:36.610Z,13.53
2018-02-24T12:11:04.090Z,14.40
2018-02-24T12:13:32.335Z,13.27
2018-02-24T12:15:59.798Z,13.23
2018-02-24T12:18:27.278Z,13.40
2018-02-24T12:20:55.520Z,14.03
2018-02-24T12:23:22.991Z,13.23
2018-02-24T12:25:50.460Z,12.97
2018-02-24T12:28:17.931Z,11.73
2018-02-24T12:30:46.452Z,13.53
2018-02-24T12:33:13.914Z,12.80
2018-02-24T12:35:41.382Z,14.03
2018-02-24T12:38:08.851Z,12.93
2018-02-24T12:40:36.327Z,11.07
2018-02-24T12:43:03.791Z,12.67
2018-02-24T12:45:31.267Z,12.20
2018-02-24T12:47:59.507Z,10.73
2018-02-24T12:50:26.994Z,10.97
2018-02-24T12:52:55.219Z,10.97
2018-02-24T12:55:22.692Z,11.03
2018-02-24T12:57:50.145Z,11.87
2018-02-24T13:00:17.620Z,9.83
2018-02-24T13:02:45.084Z,9.20
2018-02-24T13:05:12.553Z,11.27
2018-02-24T13:07:40.787Z,11.43
2018-02-24T13:10:08.260Z,11.63
2018-02-24T13:12:35.731Z,12.00
2018-02-24T13:15:03.183Z,10.40
2018-02-24T13:17:31.431Z,11.60
2018-02-24T13:19:58.899Z,10.80
2018-02-24T13:22:26.368Z,10.43
2018-02-24T13:24:54.623Z,12.13
2018-02-24T13:27:23.601Z,10.00
2018-02-24T13:29:51.066Z,9.93
2018-02-24T13:32:18.581Z,11.80
2018-02-24T13:34:46.014Z,11.73
2018-02-24T13:37:13.507Z,12.27
2018-02-24T13:39:40.982Z,12.17
2018-02-24T13:42:08.447Z,11.20
2018-02-24T13:44:35.926Z,11.30
2018-02-24T13:47:03.402Z,12.17
2018-02-24T13:49:30.895Z,10.77
2018-02-24T13:51:58.356Z,11.20
2018-02-24T13:54:26.091Z,11.07
2018-02-24T13:56:54.347Z,11.37
2018-02-24T13:59:21.810Z,13.13
2018-02-24T14:01:49.273Z,12.87
2018-02-24T14:04:16.735Z,12.07
2018-02-24T14:06:44.209Z,12.40
2018-02-24T14:09:12.440Z,11.73
2018-02-24T14:11:39.908Z,12.63
2018-02-24T14:14:07.368Z,11.00
2018-02-24T14:16:34.839Z,12.53
2018-02-24T14:19:03.075Z,12.60
2018-02-24T14:21:31.306Z,12.67
2018-02-24T14:23:59.542Z,11.47
2018-02-24T14:26:27.010Z,11.90
2018-02-24T14:28:54.491Z,12.77
2018-02-24T14:31:22.726Z,12.30
2018-02-24T14:33:51.047Z,11.73
2018-02-24T14:36:19.291Z,10.13
2018-02-24T14:38:46.754Z,12.37
2018-02-24T14:41:14.223Z,13.33
2018-02-24T14:43:42.744Z,12.70
2018-02-24T14:46:10.207Z,12.90
2018-02-24T14:48:37.671Z,12.30
2018-02-24T14:51:05.138Z,12.80
2018-02-24T14:53:32.611Z,12.13
2018-02-24T14:56:00.083Z,13.27
2018-02-24T14:58:27.538Z,12.57
2018-02-24T15:00:55.012Z,12.00
2018-02-24T15:03:23.246Z,11.40
2018-02-24T15:05:50.702Z,11.43
2018-02-24T15:08:18.173Z,11.10
2018-02-24T15:10:45.637Z,10.93
2018-02-24T15:13:13.102Z,11.70
2018-02-24T15:15:40.570Z,11.20
2018-02-24T15:18:08.805Z,11.10
2018-02-24T15:20:36.268Z,9.90
2018-02-24T15:23:03.753Z,10.63
2018-02-24T15:25:31.994Z,10.53
2018-02-24T15:27:59.462Z,10.93
2018-02-24T15:30:26.922Z,11.77
2018-02-24T15:32:56.220Z,11.50
2018-02-24T15:35:23.689Z,11.53
2018-02-24T15:37:51.181Z,11.93
2018-02-24T15:40:18.672Z,12.07
2018-02-24T15:42:46.492Z,11.80
2018-02-24T15:45:14.735Z,11.83
2018-02-24T15:47:42.259Z,11.10
2018-02-24T15:50:09.792Z,10.03
2018-02-24T15:52:38.036Z,11.13
2018-02-24T15:55:05.506Z,10.93
2018-02-24T15:57:33.751Z,12.53
2018-02-24T16:00:01.210Z,12.77
2018-02-24T16:02:28.680Z,11.47
2018-02-24T16:04:56.175Z,12.20
2018-02-24T16:07:24.478Z,11.97
2018-02-24T16:09:51.950Z,11.50
2018-02-24T16:12:19.411Z,12.73
2018-02-24T16:14:46.917Z,12.40
2018-02-24T16:17:15.147Z,10.50
2018-02-24T16:19:42.618Z,11.13
2018-02-24T16:22:10.160Z,12.13
2018-02-24T16:24:38.375Z,12.33
2018-02-24T16:27:06.603Z,13.07
2018-02-24T16:29:34.072Z,11.80
2018-02-24T16:32:01.539Z,11.60
2018-02-24T16:34:29.006Z,11.27
2018-02-24T16:36:56.466Z,11.60
2018-02-24T16:39:23.951Z,10.90
2018-02-24T16:41:51.430Z,11.70
2018-02-24T16:44:18.889Z,11.10
2018-02-24T16:46:46.404Z,11.17
2018-02-24T16:49:14.635Z,11.27
2018-02-24T16:51:42.106Z,10.90
2018-02-24T16:54:09.571Z,9.57
2018-02-24T16:56:37.047Z,10.20
2018-02-24T16:59:04.528Z,10.13
2018-02-24T17:01:32.012Z,10.23
2018-02-24T17:03:59.505Z,10.37
2018-02-24T17:06:26.975Z,11.40
2018-02-24T17:08:54.445Z,10.97
2018-02-24T17:11:21.924Z,11.13
2018-02-24T17:13:49.405Z,10.17
2018-02-24T17:16:16.871Z,10.73
2018-02-24T17:18:44.347Z,11.80
2018-02-24T17:21:11.814Z,14.20
2018-02-24T17:23:39.292Z,12.03
2018-02-24T17:26:07.531Z,12.27
2018-02-24T17:28:35.011Z,10.73
2018-02-24T17:31:02.477Z,11.30
2018-02-24T17:33:30.711Z,11.23
2018-02-24T17:35:58.170Z,11.30
2018-02-24T17:38:25.650Z,12.33
2018-02-24T17:40:53.110Z,11.57
2018-02-24T17:43:20.822Z,12.60
2018-02-24T17:45:48.323Z,12.27
2018-02-24T17:48:15.790Z,10.47
2018-02-24T17:50:43.260Z,11.93
2018-02-24T17:53:10.754Z,10.70
2018-02-24T17:55:38.222Z,9.50
2018-02-24T17:58:05.695Z,12.40
2018-02-24T18:00:33.166Z,11.87
2018-02-24T18:03:00.667Z,11.97
2018-02-24T18:05:28.138Z,13.00
2018-02-24T18:07:56.389Z,12.40
2018-02-24T18:10:24.622Z,13.20
2018-02-24T18:12:52.144Z,13.30
2018-02-24T18:15:19.606Z,12.50
2018-02-24T18:17:47.097Z,13.87
2018-02-24T18:20:14.558Z,12.77
2018-02-24T18:22:42.031Z,13.47
2018-02-24T18:25:09.491Z,13.70
2018-02-24T18:27:36.967Z,12.53
2018-02-24T18:30:04.436Z,11.33
2018-02-24T18:32:31.941Z,13.97
2018-02-24T18:34:59.394Z,11.97
2018-02-24T18:37:26.874Z,13.17
2018-02-24T18:39:54.341Z,14.50
2018-02-24T18:42:21.810Z,14.53
2018-02-24T18:44:50.038Z,14.07
2018-02-24T18:47:17.507Z,12.63
2018-02-24T18:49:44.983Z,12.90
2018-02-24T18:52:12.447Z,13.80
2018-02-24T18:54:40.687Z,13.70
2018-02-24T18:57:08.158Z,12.53
2018-02-24T18:59:35.638Z,12.93
2018-02-24T19:02:03.868Z,13.30
2018-02-24T19:04:31.615Z,14.27
2018-02-24T19:06:59.080Z,14.20
2018-02-24T19:09:26.556Z,15.13
2018-02-24T19:11:54.023Z,14.53
2018-02-24T19:14:21.493Z,13.90
2018-02-24T19:16:48.972Z,12.27
2018-02-24T19:19:17.222Z,12.80
2018-02-24T19:21:44.683Z,14.73
2018-02-24T19:24:12.154Z,12.27
2018-02-24T19:26:40.382Z,12.90
2018-02-24T19:29:07.855Z,14.83
2018-02-24T19:31:35.331Z,12.57
2018-02-24T19:34:02.794Z,11.77
2018-02-24T19:36:31.031Z,13.43
2018-02-24T19:38:58.491Z,10.47
2018-02-24T19:41:25.994Z,11.97
2018-02-24T19:43:54.218Z,13.27
2018-02-24T19:46:21.703Z,9.53
2018-02-24T19:48:49.170Z,11.87
2018-02-24T19:51:17.418Z,11.17
2018-02-24T19:53:44.886Z,11.57
2018-02-24T19:56:12.358Z,10.90
2018-02-24T19:58:40.600Z,10.27
2018-02-24T20:01:08.083Z,10.43
2018-02-24T20:03:35.546Z,11.53
2018-02-24T20:06:03.018Z,11.50
2018-02-24T20:08:31.266Z,10.30
2018-02-24T20:10:58.742Z,9.20
2018-02-24T20:13:26.210Z,10.80
2018-02-24T20:15:54.456Z,10.77
2018-02-24T20:18:21.926Z,11.67
2018-02-24T20:20:49.390Z,10.10
2018-02-24T20:23:17.618Z,10.00
2018-02-24T20:25:45.124Z,9.50
2018-02-24T20:28:13.361Z,10.97
2018-02-24T20:30:40.831Z,10.40
2018-02-24T20:33:08.325Z,9.57
2018-02-24T20:35:36.553Z,10.20
2018-02-24T20:38:04.088Z,10.23
2018-02-24T20:40:32.279Z,10.00
2018-02-24T20:42:59.752Z,11.73
2018-02-24T20:45:27.218Z,9.97
2018-02-24T20:47:54.720Z,11.37
2018-02-24T20:50:22.949Z,10.17
2018-02-24T20:52:50.422Z,10.47
2018-02-24T20:55:17.883Z,9.63
2018-02-24T20:57:46.123Z,8.60
2018-02-24T21:00:13.578Z,9.43
2018-02-24T21:02:41.043Z,9.83
2018-02-24T21:05:08.506Z,9.57
2018-02-24T21:07:35.970Z,10.17
2018-02-24T21:10:03.434Z,9.20
2018-02-24T21:12:30.920Z,8.73
2018-02-24T21:14:58.408Z,9.63
2018-02-24T21:17:25.880Z,9.57
2018-02-24T21:19:53.347Z,9.23
2018-02-24T21:22:20.811Z,8.73
2018-02-24T21:24:48.298Z,8.90
2018-02-24T21:27:16.527Z,9.90
2018-02-24T21:29:43.998Z,9.80
2018-02-24T21:32:11.452Z,8.97
2018-02-24T21:34:38.918Z,9.33
2018-02-24T21:37:06.394Z,9.90
2018-02-24T21:39:34.629Z,9.17
2018-02-24T21:42:02.095Z,8.97
2018-02-24T21:44:29.577Z,8.80
2018-02-24T21:46:57.042Z,8.33
2018-02-24T21:49:25.295Z,8.27
2018-02-24T21:51:53.156Z,5.90
2018-02-24T21:54:20.627Z,8.07
2018-02-24T21:56:48.095Z,8.70
2018-02-24T21:59:15.568Z,8.23
2018-02-24T22:01:43.787Z,8.97
2018-02-24T22:04:11.259Z,8.53
2018-02-24T22:06:38.724Z,7.50
2018-02-24T22:09:06.190Z,7.33
2018-02-24T22:11:33.657Z,7.57
2018-02-24T22:14:01.898Z,7.33
2018-02-24T22:16:29.359Z,8.13
2018-02-24T22:18:56.824Z,8.00
2018-02-24T22:21:24.290Z,7.83
2018-02-24T22:23:51.766Z,7.13
2018-02-24T22:26:19.997Z,5.40
2018-02-24T22:28:47.490Z,6.27
2018-02-24T22:31:14.970Z,6.23
2018-02-24T22:33:43.197Z,5.87
2018-02-24T22:36:10.694Z,6.50
2018-02-24T22:38:38.134Z,6.23
2018-02-24T22:41:06.378Z,5.30
2018-02-24T22:43:33.838Z,5.57
2018-02-24T22:46:01.314Z,6.00
2018-02-24T22:48:34.547Z,6.87
2018-02-24T22:51:02.027Z,5.00
2018-02-24T22:53:29.486Z,5.10
2018-02-24T22:55:56.958Z,5.50
2018-02-24T22:58:24.430Z,4.73
2018-02-24T23:00:51.891Z,5.53
2018-02-24T23:03:19.363Z,4.50
2018-02-24T23:05:47.635Z,5.17
2018-02-24T23:08:15.882Z,4.77
2018-02-24T23:10:43.342Z,5.77
2018-02-24T23:13:11.571Z,5.10
2018-02-24T23:15:39.036Z,5.50
2018-02-24T23:18:06.510Z,5.60
2018-02-24T23:20:33.970Z,6.00
2018-02-24T23:23:01.438Z,5.67
2018-02-24T23:25:28.895Z,5.50
2018-02-24T23:27:56.366Z,5.70
2018-02-24T23:30:23.842Z,5.73
2018-02-24T23:32:51.336Z,6.30
2018-02-24T23:35:18.819Z,4.80
2018-02-24T23:37:46.291Z,5.57
2018-02-24T23:40:13.751Z,5.80
2018-02-24T23:42:41.223Z,5.20
2018-02-24T23:45:08.677Z,5.67
2018-02-24T23:47:36.143Z,5.50
2018-02-24T23:50:03.619Z,6.37
2018-02-24T23:52:31.848Z,6.03
2018-02-24T23:54:59.319Z,6.17
2018-02-24T23:57:26.774Z,6.10
2018-02-24T23:59:54.251Z,6.07
